Time;durP1;ratioP1;P1;durP2;ratioP2;P2;SDS_P1;SDS_P2;PMS_P1;PMS_P2;Temp;Humidity;BMP_temperature;BMP_pressure;BME280_temperature;BME280_humidity;BME280_pressure;Samples;Min_cycle;Max_cycle;Signal;HPM_P1;HPM_P2
2021/10/22 00:01:01;;;;;;;2.80;1.37;;;;;;;10.33;74.08;97279.00;5074535;28;20032;-63
2021/10/22 00:03:29;;;;;;;1.70;1.50;;;;;;;10.31;74.24;97283.75;5074416;28;20038;-64
2021/10/22 00:05:56;;;;;;;4.15;1.75;;;;;;;10.30;73.11;97298.13;5078131;28;20068;-62
2021/10/22 00:08:22;;;;;;;1.63;1.50;;;;;;;10.24;73.50;97279.44;5076286;28;20515;-64
2021/10/22 00:10:48;;;;;;;1.60;1.40;;;;;;;10.22;72.97;97276.22;5077203;28;20075;-63
2021/10/22 00:13:13;;;;;;;2.10;1.10;;;;;;;10.19;71.39;97287.31;5075047;28;20047;-62
2021/10/22 00:15:39;;;;;;;1.30;1.20;;;;;;;10.17;71.85;97315.19;5074816;28;20150;-63
2021/10/22 00:18:05;;;;;;;0.97;0.97;;;;;;;10.07;71.42;97291.91;5073151;28;20068;-64
2021/10/22 00:20:30;;;;;;;1.83;1.40;;;;;;;9.97;71.17;97288.31;5074636;28;20059;-63
2021/10/22 00:22:56;;;;;;;1.60;1.13;;;;;;;9.96;71.12;97294.66;5074395;28;20161;-62
2021/10/22 00:25:21;;;;;;;0.80;0.80;;;;;;;9.95;70.94;97285.88;5073915;28;20477;-63
2021/10/22 00:27:47;;;;;;;1.13;0.90;;;;;;;9.95;70.19;97296.53;5074510;28;20036;-63
2021/10/22 00:30:12;;;;;;;0.80;0.80;;;;;;;9.91;70.50;97317.47;5074198;28;20119;-63
2021/10/22 00:32:38;;;;;;;1.20;1.03;;;;;;;9.93;70.02;97295.97;5074241;28;20043;-65
2021/10/22 00:35:04;;;;;;;3.03;1.00;;;;;;;9.90;70.50;97313.19;5074394;28;20055;-62
2021/10/22 00:37:30;;;;;;;1.23;0.90;;;;;;;9.89;70.40;97313.44;5072706;28;20399;-61
2021/10/22 00:39:55;;;;;;;2.60;1.30;;;;;;;9.77;70.27;97304.72;5074040;28;20130;-62
2021/10/22 00:42:23;;;;;;;1.33;0.70;;;;;;;9.74;69.75;97307.88;5074000;28;20043;-63
2021/10/22 00:44:50;;;;;;;1.30;1.20;;;;;;;9.77;70.41;97307.38;5073895;28;20040;-64
2021/10/22 00:47:16;;;;;;;1.73;1.07;;;;;;;9.75;70.49;97317.44;5089644;28;20495;-62
2021/10/22 00:49:42;;;;;;;4.67;1.30;;;;;;;9.68;70.74;97316.81;5074274;28;20028;-63
2021/10/22 00:52:08;;;;;;;2.50;1.20;;;;;;;9.66;69.49;97318.91;5074420;28;20028;-62
2021/10/22 00:54:35;;;;;;;2.03;1.00;;;;;;;9.63;70.33;97328.97;5074020;28;20053;-65
2021/10/22 00:57:01;;;;;;;1.73;0.70;;;;;;;9.59;69.93;97335.00;5073922;28;20507;-63
2021/10/22 00:59:27;;;;;;;3.43;1.27;;;;;;;9.57;71.07;97335.25;5073619;28;20484;-62
2021/10/22 01:01:53;;;;;;;1.00;0.83;;;;;;;9.54;70.17;97338.38;5073889;28;20162;-64
2021/10/22 01:04:18;;;;;;;1.70;1.40;;;;;;;9.52;70.70;97329.81;5073704;28;20042;-63
2021/10/22 01:06:44;;;;;;;2.33;1.07;;;;;;;9.41;69.66;97328.03;5073810;28;20531;-62
2021/10/22 01:09:10;;;;;;;4.60;1.40;;;;;;;9.54;69.64;97351.66;5073843;28;20479;-62
2021/10/22 01:11:37;;;;;;;3.03;1.10;;;;;;;9.57;69.08;97343.22;5073814;28;20550;-62
2021/10/22 01:14:04;;;;;;;1.87;1.10;;;;;;;9.58;69.21;97344.03;5073250;28;20040;-61
2021/10/22 01:16:30;;;;;;;0.87;0.83;;;;;;;9.53;68.34;97323.47;5073480;28;20047;-65
2021/10/22 01:18:56;;;;;;;2.17;1.00;;;;;;;9.51;69.13;97338.84;5073842;28;20035;-63
2021/10/22 01:21:21;;;;;;;1.50;1.10;;;;;;;9.48;68.81;97335.84;5073421;28;20040;-62
2021/10/22 01:23:47;;;;;;;2.30;1.00;;;;;;;9.45;68.99;97344.31;5073566;28;20142;-62
2021/10/22 01:26:14;;;;;;;2.30;1.10;;;;;;;9.42;68.01;97334.16;5073440;28;20110;-63
2021/10/22 01:28:39;;;;;;;3.50;0.90;;;;;;;9.42;67.77;97340.28;5073299;28;20491;-64
2021/10/22 01:31:05;;;;;;;2.97;0.97;;;;;;;9.31;67.18;97333.19;5073230;28;20071;-63
2021/10/22 01:33:32;;;;;;;3.63;1.83;;;;;;;9.35;66.99;97328.19;5073325;28;20032;-62
2021/10/22 01:35:58;;;;;;;2.43;0.97;;;;;;;9.38;66.75;97341.78;5073128;28;20029;-65
2021/10/22 01:38:25;;;;;;;1.93;1.83;;;;;;;9.32;67.56;97330.28;5072375;28;20089;-64
2021/10/22 01:40:54;;;;;;;1.53;1.17;;;;;;;9.31;67.06;97333.97;5072861;28;20426;-62
2021/10/22 01:43:20;;;;;;;;;;;;;;;9.40;66.74;97354.84;5073659;28;20085;-62
2021/10/22 01:45:46;;;;;;;2.33;1.23;;;;;;;9.32;66.72;97340.91;5073131;28;20310;-63
2021/10/22 01:48:12;;;;;;;2.40;1.60;;;;;;;9.37;67.49;97356.13;5088497;28;20033;-63
2021/10/22 01:50:37;;;;;;;1.87;1.10;;;;;;;9.37;67.20;97368.59;5071688;28;20178;-62
2021/10/22 01:53:08;;;;;;;1.47;1.10;;;;;;;9.34;67.75;97377.84;5071258;28;20056;-63
2021/10/22 01:55:34;;;;;;;1.37;1.00;;;;;;;9.34;66.42;97356.59;5072597;28;20043;-62
2021/10/22 01:58:00;;;;;;;1.27;1.17;;;;;;;9.28;66.90;97365.50;5072426;28;20032;-62
2021/10/22 02:00:26;;;;;;;3.57;1.00;;;;;;;9.17;67.17;97363.69;5072572;28;20110;-63
2021/10/22 02:02:51;;;;;;;2.80;1.30;;;;;;;9.15;67.11;97373.75;5072642;28;20118;-62
2021/10/22 02:05:16;;;;;;;3.17;1.30;;;;;;;9.13;67.49;97376.63;5072524;28;20067;-63
2021/10/22 02:07:42;;;;;;;3.97;1.27;;;;;;;9.08;68.47;97367.78;5071183;28;20123;-63
2021/10/22 02:10:08;;;;;;;2.77;1.70;;;;;;;9.06;68.33;97369.84;5070981;28;20051;-64
2021/10/22 02:12:34;;;;;;;1.70;1.00;;;;;;;8.96;68.31;97373.09;5072176;28;20063;-62
2021/10/22 02:14:59;;;;;;;2.30;1.30;;;;;;;8.88;67.99;97358.34;5072363;28;20488;-64
2021/10/22 02:17:25;;;;;;;2.60;1.20;;;;;;;8.64;68.29;97338.22;5072583;28;20484;-64
2021/10/22 02:19:50;;;;;;;2.33;1.30;;;;;;;8.89;66.89;97372.41;5072484;28;20032;-63
2021/10/22 02:22:16;;;;;;;1.73;1.20;;;;;;;8.91;66.07;97373.00;5072447;28;20036;-63
2021/10/22 02:24:42;;;;;;;1.53;1.00;;;;;;;8.85;66.25;97382.69;5071987;28;20029;-62
2021/10/22 02:27:07;;;;;;;1.90;1.37;;;;;;;8.74;65.83;97380.88;5071708;28;20499;-62
2021/10/22 02:29:34;;;;;;;2.60;1.13;;;;;;;8.80;65.84;97392.41;5071781;28;20036;-62
2021/10/22 02:31:59;;;;;;;2.33;1.13;;;;;;;8.78;65.45;97381.22;5072162;28;20146;-63
2021/10/22 02:34:25;;;;;;;1.97;0.90;;;;;;;8.76;65.31;97376.16;5071778;28;20070;-64
2021/10/22 02:36:51;;;;;;;4.80;0.80;;;;;;;8.80;65.52;97387.91;5071899;28;20038;-62
2021/10/22 02:39:17;;;;;;;3.33;1.53;;;;;;;8.78;64.50;97387.34;5071579;28;20032;-63
2021/10/22 02:41:45;;;;;;;2.83;1.00;;;;;;;8.79;65.01;97394.25;5071629;28;20040;-63
2021/10/22 02:44:11;;;;;;;1.60;0.90;;;;;;;8.69;64.82;97362.22;5071788;28;20127;-63
2021/10/22 02:46:36;;;;;;;2.07;0.90;;;;;;;8.71;64.60;97396.47;5087329;28;20361;-63
2021/10/22 02:49:02;;;;;;;1.63;1.53;;;;;;;8.67;64.02;97386.31;5071660;28;20131;-63
2021/10/22 02:51:28;;;;;;;2.33;1.00;;;;;;;8.69;63.74;97413.44;5071835;28;20032;-63
2021/10/22 02:53:54;;;;;;;4.87;1.27;;;;;;;8.65;62.63;97390.22;5071698;28;20522;-63
2021/10/22 02:56:20;;;;;;;3.27;1.00;;;;;;;8.57;63.06;97395.88;5071585;28;20135;-63
2021/10/22 02:58:45;;;;;;;2.60;1.33;;;;;;;8.49;62.88;97382.97;5071611;28;20039;-64
2021/10/22 03:01:11;;;;;;;4.00;1.80;;;;;;;8.57;62.92;97406.50;5072010;28;20060;-63
2021/10/22 03:03:36;;;;;;;2.83;1.27;;;;;;;8.57;62.49;97398.53;5071741;28;20103;-63
2021/10/22 03:06:02;;;;;;;1.37;1.00;;;;;;;8.54;63.03;97407.75;5071684;28;20064;-63
2021/10/22 03:08:27;;;;;;;3.07;1.10;;;;;;;8.48;63.33;97403.38;5071687;28;20556;-61
2021/10/22 03:10:53;;;;;;;1.97;1.03;;;;;;;8.38;64.53;97409.28;5071314;28;20085;-64
2021/10/22 03:13:18;;;;;;;2.67;1.07;;;;;;;8.27;63.68;97423.28;5071746;28;20056;-65
2021/10/22 03:15:44;;;;;;;2.47;1.33;;;;;;;8.20;63.28;97401.38;5087061;28;20032;-62
2021/10/22 03:18:09;;;;;;;1.37;0.80;;;;;;;8.05;63.47;97408.94;5071585;28;20131;-62
2021/10/22 03:20:35;;;;;;;2.47;1.13;;;;;;;8.11;62.88;97408.06;5071624;28;20024;-62
2021/10/22 03:23:01;;;;;;;3.20;1.47;;;;;;;8.01;62.44;97402.50;5071702;28;20025;-63
2021/10/22 03:25:26;;;;;;;2.97;1.07;;;;;;;7.98;62.42;97392.34;5071702;28;20032;-62
2021/10/22 03:27:53;;;;;;;1.97;1.30;;;;;;;7.97;62.46;97406.66;5071761;28;20047;-64
2021/10/22 03:30:19;;;;;;;3.43;1.20;;;;;;;7.88;62.31;97408.00;5071469;28;20070;-62
2021/10/22 03:32:44;;;;;;;4.57;1.70;;;;;;;7.70;62.48;97369.16;5071736;28;20032;-63
2021/10/22 03:35:10;;;;;;;1.07;0.80;;;;;;;7.82;63.21;97390.38;5070999;28;20039;-62
2021/10/22 03:37:35;;;;;;;3.97;1.23;;;;;;;7.77;63.20;97391.84;5071440;28;20055;-61
2021/10/22 03:40:01;;;;;;;3.03;1.23;;;;;;;7.71;63.42;97391.94;5071567;28;20130;-62
2021/10/22 03:42:26;;;;;;;3.00;1.23;;;;;;;7.69;64.40;97405.41;5072016;28;20097;-65
2021/10/22 03:44:52;;;;;;;3.80;1.00;;;;;;;7.68;64.68;97425.00;5072194;28;20094;-61
2021/10/22 03:47:17;;;;;;;3.13;1.20;;;;;;;7.67;64.33;97399.53;5071812;28;20037;-64
2021/10/22 03:49:43;;;;;;;3.63;1.20;;;;;;;7.65;64.74;97422.00;5072020;28;20047;-63
2021/10/22 03:52:09;;;;;;;4.03;1.37;;;;;;;7.61;64.35;97412.88;5071580;28;20036;-62
2021/10/22 03:54:35;;;;;;;2.33;1.50;;;;;;;7.62;64.25;97403.91;5072879;28;20059;-63
2021/10/22 03:57:01;;;;;;;2.77;1.20;;;;;;;7.64;64.64;97423.84;5073157;28;20423;-63
2021/10/22 03:59:26;;;;;;;3.13;1.10;;;;;;;7.60;64.89;97409.44;5072432;28;20498;-63
2021/10/22 04:01:51;;;;;;;2.73;1.33;;;;;;;7.59;64.52;97414.94;5075285;28;20032;-63
2021/10/22 04:04:17;;;;;;;1.60;1.10;;;;;;;7.64;64.08;97417.72;5075304;28;20044;-63
2021/10/22 04:06:43;;;;;;;2.00;1.23;;;;;;;7.60;64.19;97411.28;5075090;28;20044;-63
2021/10/22 04:09:10;;;;;;;2.77;1.10;;;;;;;7.54;64.87;97407.69;5074681;28;20080;-62
2021/10/22 04:11:35;;;;;;;2.60;1.20;;;;;;;7.52;64.12;97412.41;5073579;28;20121;-62
2021/10/22 04:14:02;;;;;;;2.73;1.30;;;;;;;7.48;64.04;97421.81;5075090;28;20041;-62
2021/10/22 04:16:28;;;;;;;3.20;1.20;;;;;;;7.50;64.74;97384.50;5073775;28;20052;-68
2021/10/22 04:18:54;;;;;;;3.07;1.23;;;;;;;7.51;64.30;97397.50;5075287;28;20074;-65
2021/10/22 04:21:19;;;;;;;3.53;1.57;;;;;;;7.56;63.95;97413.56;5073297;28;20043;-70
2021/10/22 04:23:45;;;;;;;2.90;1.60;;;;;;;7.63;64.07;97416.91;5075642;28;20043;-80
2021/10/22 04:26:12;;;;;;;2.57;0.90;;;;;;;7.54;63.50;97391.00;5076030;28;20025;-76
2021/10/22 04:28:37;;;;;;;2.37;2.00;;;;;;;7.57;63.73;97407.22;5075858;28;20389;-69
2021/10/22 04:31:03;;;;;;;5.37;1.70;;;;;;;7.63;63.44;97414.28;5077066;28;20130;-76
2021/10/22 04:33:39;;;;;;;3.17;1.13;;;;;;;7.28;62.91;97365.69;5091658;28;20471;-77
2021/10/22 04:36:08;;;;;;;5.37;1.50;;;;;;;7.65;63.36;97422.81;5090739;28;20157;-75
2021/10/22 04:41:20;;;;;;;1.63;1.10;;;;;;;7.62;63.95;97411.84;5078010;28;20036;-73
2021/10/22 04:43:50;;;;;;;3.73;1.17;;;;;;;7.69;63.75;97426.59;5080155;28;20040;-73
2021/10/22 04:46:15;;;;;;;5.07;2.30;;;;;;;7.67;64.08;97423.38;5076661;28;20130;-72
2021/10/22 04:48:41;;;;;;;3.77;1.40;;;;;;;7.65;64.22;97427.28;5073725;28;20478;-69
2021/10/22 04:51:07;;;;;;;3.70;1.50;;;;;;;7.68;64.09;97438.22;5074068;28;20040;-69
2021/10/22 04:53:32;;;;;;;2.83;1.10;;;;;;;7.63;64.08;97432.00;5073318;28;20062;-71
2021/10/22 04:55:58;;;;;;;2.57;1.20;;;;;;;7.58;64.17;97455.72;5072506;28;20045;-70
2021/10/22 04:58:23;;;;;;;2.27;1.03;;;;;;;7.42;64.56;97436.75;5073822;28;20487;-69
2021/10/22 05:00:48;;;;;;;3.67;1.20;;;;;;;7.32;65.04;97452.34;5073376;28;20048;-69
2021/10/22 05:03:14;;;;;;;4.13;2.20;;;;;;;7.23;66.05;97445.75;5073713;28;20040;-68
2021/10/22 05:05:40;;;;;;;4.10;1.10;;;;;;;7.12;66.34;97431.41;5089004;28;20039;-69
2021/10/22 05:08:05;;;;;;;2.73;1.00;;;;;;;7.11;66.31;97443.03;5073461;28;20040;-68
2021/10/22 05:10:31;;;;;;;2.90;1.40;;;;;;;7.18;66.13;97445.59;5073540;28;20158;-70
2021/10/22 05:12:56;;;;;;;4.23;1.23;;;;;;;7.21;66.46;97436.41;5073586;28;20048;-70
2021/10/22 05:15:23;;;;;;;6.57;1.23;;;;;;;7.28;66.47;97445.09;5073308;28;20057;-70
2021/10/22 05:17:49;;;;;;;1.73;1.43;;;;;;;7.21;65.44;97423.97;5073188;28;20036;-72
2021/10/22 05:20:15;;;;;;;2.60;1.63;;;;;;;7.40;65.40;97443.28;5073159;28;20543;-73
2021/10/22 05:22:41;;;;;;;2.13;1.37;;;;;;;7.42;64.48;97447.34;5072884;28;20032;-72
2021/10/22 05:25:07;;;;;;;6.33;1.63;;;;;;;7.55;64.64;97456.97;5073298;28;20075;-72
2021/10/22 05:27:33;;;;;;;6.37;1.20;;;;;;;7.57;63.89;97451.44;5073316;28;20036;-72
2021/10/22 05:29:58;;;;;;;4.23;1.73;;;;;;;7.58;63.17;97445.13;5073111;28;20480;-70
2021/10/22 05:32:24;;;;;;;2.47;1.40;;;;;;;7.51;63.31;97429.28;5072954;28;20032;-71
2021/10/22 05:34:49;;;;;;;3.17;1.33;;;;;;;7.65;63.02;97436.03;5072788;28;20545;-71
2021/10/22 05:37:14;;;;;;;1.43;1.17;;;;;;;7.77;62.17;97454.63;5073208;28;20032;-72
2021/10/22 05:39:40;;;;;;;3.87;1.23;;;;;;;7.76;61.80;97463.59;5072801;28;20028;-70
2021/10/22 05:42:06;;;;;;;3.30;1.30;;;;;;;7.69;61.50;97447.78;5072904;28;20086;-68
2021/10/22 05:44:31;;;;;;;2.13;1.40;;;;;;;7.81;61.11;97484.13;5073536;28;20037;-71
2021/10/22 05:46:58;;;;;;;3.60;1.47;;;;;;;7.87;61.67;97478.75;5073777;28;20032;-70
2021/10/22 05:49:24;;;;;;;5.27;2.13;;;;;;;7.92;61.67;97491.31;5075386;28;20044;-72
2021/10/22 05:51:51;;;;;;;1.97;1.67;;;;;;;7.94;61.14;97491.88;5073281;28;20126;-70
2021/10/22 05:54:18;;;;;;;2.23;1.00;;;;;;;7.93;61.47;97490.28;5087902;28;20079;-70
2021/10/22 05:56:43;;;;;;;2.60;1.37;;;;;;;7.88;60.91;97493.59;5072338;28;20044;-71
2021/10/22 05:59:09;;;;;;;2.33;1.00;;;;;;;7.89;60.87;97494.41;5072130;28;20552;-73
2021/10/22 06:01:35;;;;;;;4.00;1.30;;;;;;;7.88;60.76;97479.53;5072241;28;20400;-76
2021/10/22 06:04:00;;;;;;;1.27;1.07;;;;;;;7.74;60.47;97486.84;5071196;28;20515;-75
2021/10/22 06:06:26;;;;;;;4.13;1.13;;;;;;;7.72;60.78;97487.06;5072987;28;20036;-75
2021/10/22 06:08:52;;;;;;;4.20;1.30;;;;;;;7.75;59.77;97491.91;5072345;28;20479;-69
2021/10/22 06:11:20;;;;;;;4.03;2.27;;;;;;;7.72;59.79;97486.28;5072268;28;20056;-76
2021/10/22 06:13:46;;;;;;;3.27;1.70;;;;;;;7.67;59.72;97492.25;5073525;28;20068;-75
2021/10/22 06:16:13;;;;;;;2.27;1.30;;;;;;;7.51;59.77;97484.91;5072564;28;20048;-71
2021/10/22 06:18:48;;;;;;;2.87;2.00;;;;;;;7.52;59.54;97489.19;5092081;28;20112;-69
2021/10/22 06:24:02;;;;;;;1.23;0.80;;;;;;;7.52;60.34;97499.78;5091689;28;20403;-70
2021/10/22 06:26:32;;;;;;;1.27;1.03;;;;;;;7.51;60.96;97500.78;5090817;28;20123;-71
2021/10/22 06:29:00;;;;;;;5.57;1.37;;;;;;;7.51;60.69;97503.44;5092200;28;20040;-70
2021/10/22 06:31:27;;;;;;;4.18;1.20;;;;;;;7.49;60.33;97512.63;5092278;28;20036;-72
2021/10/22 06:33:53;;;;;;;1.40;1.30;;;;;;;7.51;60.72;97506.09;5092357;28;20105;-70
2021/10/22 06:36:19;;;;;;;2.97;1.80;;;;;;;7.47;60.79;97510.19;5090949;28;20590;-70
2021/10/22 06:38:45;;;;;;;2.00;1.87;;;;;;;7.46;60.88;97511.25;5091082;28;20036;-74
2021/10/22 06:41:10;;;;;;;3.27;1.63;;;;;;;6.97;61.17;97454.81;5090496;28;20038;-74
2021/10/22 06:43:40;;;;;;;2.37;1.80;;;;;;;7.36;62.41;97542.72;5092221;28;20040;-73
2021/10/22 06:46:07;;;;;;;4.97;2.60;;;;;;;7.35;63.36;97563.09;5090817;28;20073;-67
2021/10/22 06:48:36;;;;;;;2.13;1.93;;;;;;;7.18;65.84;97561.22;5090571;28;20127;-71
2021/10/22 06:51:03;;;;;;;1.90;0.90;;;;;;;6.77;67.77;97539.63;5092507;28;20064;-68
2021/10/22 06:53:31;;;;;;;2.00;0.80;;;;;;;6.38;72.41;97546.03;5056858;28;20162;-76
2021/10/22 06:55:57;;;;;;;1.73;1.40;;;;;;;6.02;75.52;97570.44;5091626;28;20036;-72
2021/10/22 06:58:23;;;;;;;3.23;1.10;;;;;;;5.87;74.96;97552.19;5090615;28;20043;-67
2021/10/22 07:00:49;;;;;;;2.80;1.30;;;;;;;5.93;74.78;97558.50;5090520;28;20055;-72
2021/10/22 07:03:23;;;;;;;2.50;1.30;;;;;;;5.92;74.18;97538.38;5091986;28;20051;-75
2021/10/22 07:08:25;;;;;;;1.83;1.60;;;;;;;6.32;70.39;97552.16;5091292;28;20395;-71
2021/10/22 07:10:51;;;;;;;1.37;1.10;;;;;;;6.46;71.13;97537.84;5091678;28;20048;-76
2021/10/22 07:13:18;;;;;;;1.50;1.40;;;;;;;6.56;69.33;97526.78;5091633;28;20126;-68
2021/10/22 07:15:43;;;;;;;4.63;1.60;;;;;;;6.83;69.48;97543.22;5090034;28;20166;-68
2021/10/22 07:18:09;;;;;;;3.17;1.60;;;;;;;7.00;67.67;97559.38;5091681;28;20040;-72
2021/10/22 07:20:36;;;;;;;4.90;1.70;;;;;;;7.05;66.04;97547.09;5091676;28;20032;-74
2021/10/22 07:23:06;;;;;;;1.80;1.40;;;;;;;7.24;66.14;97552.44;5086457;28;20427;-75
2021/10/22 07:25:33;;;;;;;2.93;1.50;;;;;;;7.30;64.94;97546.25;5083977;28;20044;-73
2021/10/22 07:28:10;;;;;;;2.07;1.37;;;;;;;7.32;64.98;97552.94;5079153;28;20051;-71
2021/10/22 07:30:36;;;;;;;4.50;1.50;;;;;;;7.23;63.09;97521.69;5096599;28;20039;-71
2021/10/22 07:33:02;;;;;;;1.63;1.50;;;;;;;7.47;64.06;97540.13;5079295;28;20025;-73
2021/10/22 07:35:28;;;;;;;2.10;1.27;;;;;;;7.51;62.79;97569.63;5099101;28;20093;-75
2021/10/22 07:37:55;;;;;;;2.00;1.20;;;;;;;7.37;62.97;97534.56;5089483;28;20067;-76
2021/10/22 07:40:20;;;;;;;4.23;1.60;;;;;;;7.49;62.89;97563.75;5077139;28;20047;-70
2021/10/22 07:42:46;;;;;;;3.23;1.70;;;;;;;7.47;63.11;97569.25;5075157;28;20044;-69
2021/10/22 07:45:11;;;;;;;2.13;1.13;;;;;;;7.42;63.01;97565.66;5074924;28;20467;-71
2021/10/22 07:47:37;;;;;;;1.30;1.20;;;;;;;7.42;62.39;97557.72;5090419;28;20036;-71
2021/10/22 07:50:08;;;;;;;1.43;1.27;;;;;;;7.37;63.02;97574.28;5074513;28;20036;-70
2021/10/22 07:52:34;;;;;;;2.73;1.43;;;;;;;7.39;63.24;97574.06;5074824;28;20048;-72
2021/10/22 07:55:01;;;;;;;3.43;1.70;;;;;;;7.40;63.07;97575.66;5076736;28;20463;-72
2021/10/22 07:57:28;;;;;;;1.60;1.40;;;;;;;7.42;63.53;97571.78;5080839;28;20067;-70
2021/10/22 07:59:54;;;;;;;1.90;1.23;;;;;;;7.43;62.72;97570.75;5100423;28;20131;-71
2021/10/22 08:02:21;;;;;;;2.17;1.57;;;;;;;7.42;63.15;97578.91;5094054;28;20079;-74
2021/10/22 08:04:49;;;;;;;1.77;1.20;;;;;;;7.51;62.96;97588.16;5093580;28;20031;-74
2021/10/22 08:07:17;;;;;;;3.88;1.40;;;;;;;7.48;62.64;97585.97;5093785;28;20032;-73
2021/10/22 08:09:44;;;;;;;3.85;1.38;;;;;;;7.41;63.09;97575.44;5095111;28;20111;-74
2021/10/22 08:12:15;;;;;;;3.13;2.30;;;;;;;7.46;62.95;97575.59;5094654;28;20028;-76
2021/10/22 08:14:42;;;;;;;1.50;0.80;;;;;;;7.56;62.19;97587.53;5104040;28;20036;-73
2021/10/22 08:17:09;;;;;;;3.77;1.30;;;;;;;7.58;62.72;97572.22;5105660;28;20035;-71
2021/10/22 08:19:35;;;;;;;3.30;0.97;;;;;;;7.62;61.61;97589.28;5097155;28;20031;-66
2021/10/22 08:24:45;;;;;;;3.00;1.03;;;;;;;7.61;62.22;97596.44;5094608;28;20067;-68
2021/10/22 08:27:11;;;;;;;6.27;1.67;;;;;;;7.73;61.30;97589.34;5094455;28;20446;-69
2021/10/22 08:29:36;;;;;;;1.83;1.30;;;;;;;7.87;61.74;97608.56;5094084;28;20028;-68
2021/10/22 08:32:08;;;;;;;2.33;1.20;;;;;;;7.80;60.52;97601.69;5094418;28;20109;-65
2021/10/22 08:34:33;;;;;;;1.77;1.57;;;;;;;7.74;60.32;97611.34;5094499;28;20047;-68
2021/10/22 08:36:59;;;;;;;2.87;1.40;;;;;;;7.69;60.34;97606.72;5094397;28;20036;-69
2021/10/22 08:39:24;;;;;;;1.90;1.50;;;;;;;7.71;60.31;97607.31;5094315;28;20040;-71
2021/10/22 08:41:52;;;;;;;2.63;1.50;;;;;;;7.68;60.66;97612.25;5094326;28;20039;-70
2021/10/22 08:44:18;;;;;;;8.10;1.30;;;;;;;7.73;60.15;97612.38;5094418;28;21177;-70
2021/10/22 08:46:47;;;;;;;4.10;1.43;;;;;;;7.79;60.02;97622.09;5093892;28;20043;-65
2021/10/22 08:49:14;;;;;;;5.37;2.83;;;;;;;7.81;59.84;97625.34;5094280;28;20042;-72
2021/10/22 08:51:41;;;;;;;2.77;1.40;;;;;;;7.83;59.42;97627.78;5094196;28;20096;-72
2021/10/22 08:54:09;;;;;;;1.97;1.23;;;;;;;7.72;59.63;97622.16;5093857;28;20052;-73
2021/10/22 08:56:35;;;;;;;8.38;2.17;;;;;;;7.68;60.38;97631.59;5109573;28;20095;-73
2021/10/22 08:59:05;;;;;;;4.20;1.40;;;;;;;7.75;59.10;97642.09;5094014;28;20040;-67
2021/10/22 09:01:32;;;;;;;2.43;1.47;;;;;;;7.82;58.83;97639.41;5097227;28;20024;-64
2021/10/22 09:04:04;;;;;;;4.43;2.47;;;;;;;7.84;58.52;97643.44;5082726;28;20028;-77
2021/10/22 09:06:49;;;;;;;3.50;1.60;;;;;;;7.88;58.23;97643.81;5084791;28;20043;-69
2021/10/22 09:09:17;;;;;;;1.43;1.13;;;;;;;7.83;57.97;97643.69;5081498;28;20032;-69
2021/10/22 09:11:47;;;;;;;3.73;1.50;;;;;;;7.88;57.24;97641.16;5084776;28;20032;-70
2021/10/22 09:14:16;;;;;;;2.90;1.50;;;;;;;7.97;58.10;97659.19;5086923;28;20036;-68
2021/10/22 09:16:49;;;;;;;2.40;2.17;;;;;;;8.01;57.46;97656.91;5095363;28;20075;-65
2021/10/22 09:19:37;;;;;;;2.10;1.60;;;;;;;8.00;56.21;97647.34;5112068;28;20044;-63
2021/10/22 09:22:23;;;;;;;1.93;1.73;;;;;;;8.02;56.92;97664.63;5093693;28;20036;-66
2021/10/22 09:24:54;;;;;;;1.80;1.40;;;;;;;8.03;57.38;97666.25;5093851;28;20046;-68
2021/10/22 09:27:45;;;;;;;3.70;1.73;;;;;;;8.05;56.79;97668.69;5093345;28;20039;-67
2021/10/22 09:30:29;;;;;;;1.90;0.93;;;;;;;7.80;56.32;97649.38;5093153;28;20040;-67
2021/10/22 09:33:02;;;;;;;1.77;1.20;;;;;;;8.05;56.40;97672.13;5093704;28;20089;-69
2021/10/22 09:35:50;;;;;;;2.43;1.30;;;;;;;8.13;56.51;97691.44;5092596;28;20124;-70
2021/10/22 09:38:18;;;;;;;1.90;1.10;;;;;;;8.14;55.21;97685.91;5092007;28;20032;-68
2021/10/22 09:40:46;;;;;;;1.38;1.10;;;;;;;8.04;54.93;97673.16;5092038;28;20036;-74
2021/10/22 09:43:26;;;;;;;3.75;1.15;;;;;;;8.04;54.83;97678.47;5092710;28;20043;-74
2021/10/22 09:46:13;;;;;;;2.03;1.00;;;;;;;8.21;54.36;97686.66;5092662;28;20047;-74
2021/10/22 09:48:41;;;;;;;4.33;1.20;;;;;;;8.21;53.52;97699.91;5092768;28;20534;-70
2021/10/22 09:51:26;;;;;;;3.38;1.20;;;;;;;8.26;54.34;97685.97;5092919;28;20039;-72
2021/10/22 09:53:55;;;;;;;3.80;1.37;;;;;;;8.24;54.05;97682.75;5092472;28;20048;-71
2021/10/22 09:56:27;;;;;;;5.80;1.50;;;;;;;8.27;52.87;97701.66;5091285;28;20093;-72
2021/10/22 09:59:04;;;;;;;3.40;1.30;;;;;;;8.32;53.15;97695.69;5092687;28;20126;-75
2021/10/22 10:01:41;;;;;;;4.00;1.00;;;;;;;8.32;52.32;97683.22;5092838;28;20043;-71
2021/10/22 10:04:09;;;;;;;2.67;1.23;;;;;;;8.29;52.79;97702.25;5092102;28;20032;-72
2021/10/22 10:06:39;;;;;;;2.03;1.50;;;;;;;8.29;52.21;97702.25;5092806;28;20032;-68
2021/10/22 10:09:08;;;;;;;4.00;1.20;;;;;;;8.31;52.50;97710.78;5092702;28;20028;-68
2021/10/22 10:11:34;;;;;;;;;;;;;;;8.35;52.56;97719.13;5092371;28;20042;-71
2021/10/22 10:14:01;;;;;;;3.47;1.40;;;;;;;8.31;52.41;97724.03;5091761;28;20306;-69
2021/10/22 10:16:31;;;;;;;5.70;1.50;;;;;;;8.22;53.34;97712.13;5107638;28;20038;-68
2021/10/22 10:19:19;;;;;;;8.27;1.87;;;;;;;8.25;52.72;97726.78;5092545;28;20075;-70
2021/10/22 10:22:06;;;;;;;1.23;0.90;;;;;;;8.13;52.99;97713.47;5090490;28;20161;-65
2021/10/22 10:24:47;;;;;;;1.43;1.00;;;;;;;8.22;52.57;97720.06;5090443;28;20382;-72
2021/10/22 10:27:17;;;;;;;4.23;1.40;;;;;;;8.26;51.42;97745.09;5089510;28;20040;-73
2021/10/22 10:29:49;;;;;;;3.70;1.40;;;;;;;8.20;51.45;97742.53;5092008;28;20039;-72
2021/10/22 10:32:18;;;;;;;3.73;1.10;;;;;;;8.24;51.22;97741.88;5092028;28;20036;-71
2021/10/22 10:34:46;;;;;;;3.90;1.40;;;;;;;8.27;50.71;97730.81;5091063;28;20039;-72
2021/10/22 10:37:35;;;;;;;4.00;1.45;;;;;;;8.32;50.96;97738.09;5073941;28;20032;-74
2021/10/22 10:40:07;;;;;;;1.83;1.00;;;;;;;8.36;51.19;97739.31;5091741;28;20040;-63
2021/10/22 10:42:38;;;;;;;6.57;1.30;;;;;;;8.32;51.14;97754.81;5091974;28;20141;-66
2021/10/22 10:45:23;;;;;;;1.70;0.90;;;;;;;8.31;50.93;97758.50;5092174;28;20126;-70
2021/10/22 10:47:57;;;;;;;5.57;1.33;;;;;;;8.21;51.63;97760.88;5092001;28;20127;-69
2021/10/22 10:50:44;;;;;;;4.00;1.07;;;;;;;8.20;51.26;97766.41;5090639;28;20044;-64
2021/10/22 10:53:16;;;;;;;3.70;1.63;;;;;;;8.14;50.56;97762.78;5091310;28;20091;-69
2021/10/22 10:55:46;;;;;;;5.57;1.20;;;;;;;8.18;50.58;97763.97;5091870;28;20137;-67
2021/10/22 10:58:18;;;;;;;2.78;1.30;;;;;;;8.12;50.29;97770.16;5107641;28;20384;-70
2021/10/22 11:00:43;;;;;;;3.00;1.23;;;;;;;8.16;50.78;97775.81;5091134;28;20352;-63
2021/10/22 11:03:14;;;;;;;3.93;1.27;;;;;;;8.19;50.19;97775.38;5091526;28;20198;-67
2021/10/22 11:06:01;;;;;;;4.60;1.40;;;;;;;8.19;49.88;97780.69;5091591;28;20035;-68
2021/10/22 11:08:38;;;;;;;7.37;1.47;;;;;;;8.23;51.01;97776.56;5090537;28;20059;-73
2021/10/22 11:13:52;;;;;;;2.73;1.10;;;;;;;8.12;51.10;97754.25;5095679;28;20429;-64
2021/10/22 11:16:21;;;;;;;3.53;1.63;;;;;;;8.18;50.36;97779.88;5095386;28;20028;-71
2021/10/22 11:18:54;;;;;;;2.53;1.10;;;;;;;8.20;50.68;97777.81;5094313;28;20059;-71
2021/10/22 11:21:22;;;;;;;4.33;1.27;;;;;;;8.03;50.46;97755.53;5095780;28;20073;-66
2021/10/22 11:23:49;;;;;;;3.53;1.23;;;;;;;8.04;50.92;97762.47;5094653;28;20093;-69
2021/10/22 11:26:19;;;;;;;10.70;2.57;;;;;;;8.14;50.04;97799.91;5095825;28;20067;-65
2021/10/22 11:29:16;;;;;;;1.47;0.93;;;;;;;8.22;49.54;97791.66;5095476;28;20028;-67
2021/10/22 11:31:45;;;;;;;2.53;1.30;;;;;;;8.18;49.98;97782.53;5094409;28;20048;-66
2021/10/22 11:34:22;;;;;;;3.13;1.33;;;;;;;8.24;49.85;97808.16;5095462;28;20043;-68
2021/10/22 11:37:15;;;;;;;3.07;1.73;;;;;;;8.16;49.83;97787.25;5094891;28;20040;-73
2021/10/22 11:39:44;;;;;;;5.80;2.00;;;;;;;8.24;49.79;97804.69;5094212;28;20085;-62
2021/10/22 11:42:29;;;;;;;4.27;1.70;;;;;;;8.24;49.89;97812.63;5095129;28;20099;-66
2021/10/22 11:45:12;;;;;;;6.80;1.60;;;;;;;8.20;49.97;97796.38;5094487;28;20055;-65
2021/10/22 11:47:46;;;;;;;4.70;1.30;;;;;;;8.13;49.32;97808.88;5094924;28;20089;-71
2021/10/22 11:50:24;;;;;;;4.77;1.63;;;;;;;8.02;49.31;97801.63;5095172;28;20103;-70
2021/10/22 11:53:11;;;;;;;4.43;1.50;;;;;;;8.21;49.73;97813.09;5095067;28;20036;-66
2021/10/22 11:56:00;;;;;;;5.10;1.30;;;;;;;8.10;49.13;97813.81;5095046;28;20051;-67
2021/10/22 11:58:25;;;;;;;11.20;1.73;;;;;;;8.20;49.32;97825.53;5099913;28;20039;-69
2021/10/22 12:00:53;;;;;;;2.40;1.30;;;;;;;8.02;49.32;97810.38;5097852;28;20040;-66